Kezdőlap
METAR-TAF:

METAR-TAF

Repülőterek :

Padova, Olaszország

földrajzi szélesség: 45-23-45N, földrajzi hosszúság: 11-50-53E, magasság: 13 m

Jelenlegi meteorológiai megfigyelések

A jelentés 12 órával és 55 perccel ezelõtt készült, 07:00 UTC
Különbözõ irányokból fújó szél 3 kt, északnyugati és észak-északkeleti között változik
Hőmérséklet 5°C
Páratartalom 100%
Légköri nyomás 1021 hPa
Látótávolság: 6000 m
Kevés felhő 4500 lábon

METAR: LIPU 190700Z VRB03KT 310V020 6000 FEW045 05/05 Q1021

Idő: 20:55 (19:55 UTC)


TAF: hiányzik

Meteorológiai megfigyelések és előrejelzések több, mint 4000 repülőtéren (METAR és TAF jelentéseket).

A térképen piros és sárga pontok jelzik az elérhető meteorológiai állomásokat.

Mozgassa az egeret a pont fölött, hogy megjelenjen az állomás neve.

Azután kattintson az időjárási megfigyelések és előrejelzések megtekintéséhez.

A térkép megváltoztatása: kattintson a fekete keresztel jelölt zöld gombra ráközelítéshez, a vonallal jelölt zöld gombra távolításhoz, vagy a zöld nyilakra a szomszédos térképek eléréséhez.


METAR-TAF: